Time;durP1;ratioP1;P1;durP2;ratioP2;P2;SDS_P1;SDS_P2;PMS_P1;PMS_P2;Temp;Humidity;BMP_temperature;BMP_pressure;BME280_temperature;BME280_humidity;BME280_pressure;Samples;Min_cycle;Max_cycle;Signal;HPM_P1;HPM_P2
2022/10/30 00:00:44;;;;;;;18.33;8.63;;;;;;;19.57;55.09;101632.44;4967088;28;124625;-69
2022/10/30 00:03:13;;;;;;;13.25;8.65;;;;;;;19.54;55.14;101632.66;4961282;28;124055;-69
2022/10/30 00:05:42;;;;;;;19.92;8.77;;;;;;;19.51;55.18;101627.50;4965133;28;113824;-68
2022/10/30 00:08:12;;;;;;;16.38;8.35;;;;;;;19.49;55.19;101624.06;4964913;28;114661;-69
2022/10/30 00:10:39;;;;;;;19.92;8.75;;;;;;;19.46;55.02;101621.59;4962792;28;123823;-68
2022/10/30 00:13:07;;;;;;;22.55;8.70;;;;;;;19.42;55.15;101622.75;4969254;28;124230;-69
2022/10/30 00:15:34;;;;;;;13.68;8.25;;;;;;;19.37;55.30;101624.94;4965595;28;113847;-69
2022/10/30 00:18:02;;;;;;;13.93;8.57;;;;;;;19.33;55.13;101623.44;4963006;28;113719;-69
2022/10/30 00:20:29;;;;;;;17.17;9.20;;;;;;;19.29;55.36;101624.56;4966156;28;124824;-69
2022/10/30 00:22:56;;;;;;;16.65;8.55;;;;;;;19.22;55.35;101611.59;4965628;28;123054;-69
2022/10/30 00:25:23;;;;;;;16.45;8.30;;;;;;;19.17;55.40;101608.34;4965752;28;113674;-69
2022/10/30 00:27:50;;;;;;;17.45;8.40;;;;;;;19.15;55.49;101614.81;4963721;28;113655;-68
2022/10/30 00:30:18;;;;;;;18.88;8.70;;;;;;;19.10;55.39;101623.19;4962574;28;124733;-69
2022/10/30 00:32:45;;;;;;;14.90;8.35;;;;;;;19.06;55.68;101621.66;4962816;28;122769;-68
2022/10/30 00:35:12;;;;;;;18.05;9.07;;;;;;;19.02;55.71;101621.03;4963429;28;115011;-69
2022/10/30 00:37:39;;;;;;;17.75;9.38;;;;;;;18.98;55.54;101629.38;4962714;28;115266;-68
2022/10/30 00:40:12;;;;;;;14.48;8.63;;;;;;;18.92;55.77;101619.06;4980679;28;124085;-69
2022/10/30 00:42:39;;;;;;;19.42;8.45;;;;;;;18.85;55.69;101624.88;4967574;28;124445;-68
2022/10/30 00:45:10;;;;;;;14.05;8.77;;;;;;;18.80;55.96;101621.63;4962825;28;114015;-68
2022/10/30 00:47:43;;;;;;;15.98;8.70;;;;;;;18.77;56.23;101621.78;4964141;28;113831;-69
2022/10/30 00:50:32;;;;;;;16.85;8.68;;;;;;;18.73;55.89;101617.59;4962135;28;123283;-68
2022/10/30 00:53:12;;;;;;;16.65;8.38;;;;;;;18.70;56.31;101625.84;4963254;28;123482;-68
2022/10/30 00:55:50;;;;;;;17.10;8.63;;;;;;;18.67;56.14;101620.69;4960369;28;114380;-68
2022/10/30 00:58:22;;;;;;;16.35;8.68;;;;;;;18.64;56.43;101615.53;4960129;28;114360;-68
2022/10/30 01:00:52;;;;;;;14.90;8.10;;;;;;;18.61;56.27;101615.72;4958847;28;123040;-68
2022/10/30 01:03:21;;;;;;;15.68;8.40;;;;;;;18.58;56.41;101615.94;4967914;28;124644;-68
2022/10/30 01:05:54;;;;;;;18.17;8.77;;;;;;;18.56;56.46;101617.88;4962969;28;112722;-68
2022/10/30 01:08:21;;;;;;;17.30;8.60;;;;;;;18.54;56.42;101614.44;4960315;28;113518;-68
2022/10/30 01:10:49;;;;;;;20.58;9.00;;;;;;;18.51;56.53;101614.63;4960976;28;123129;-68
2022/10/30 01:13:19;;;;;;;17.88;8.80;;;;;;;18.48;56.50;101621.91;4979871;28;123196;-69
2022/10/30 01:16:16;;;;;;;17.85;8.65;;;;;;;18.45;56.53;101627.47;4968083;28;113681;-69
2022/10/30 01:19:07;;;;;;;17.85;8.50;;;;;;;18.43;56.51;101617.81;4950644;28;113344;-68
2022/10/30 01:21:56;;;;;;;15.57;9.07;;;;;;;18.40;56.54;101613.53;4960431;28;122219;-69
2022/10/30 01:24:37;;;;;;;21.33;9.10;;;;;;;18.37;56.48;101602.97;4959827;28;122753;-69
2022/10/30 01:27:21;;;;;;;11.95;7.97;;;;;;;18.34;56.33;101613.91;4961446;28;115134;-69
2022/10/30 01:29:53;;;;;;;;;;;;;;;18.27;56.44;101612.56;4966792;28;114089;-68
2022/10/30 01:32:40;;;;;;;16.27;8.50;;;;;;;18.25;56.40;101610.03;4968455;28;123262;-68
2022/10/30 01:35:16;;;;;;;18.02;9.25;;;;;;;18.21;56.53;101621.88;4966200;28;123811;-68
2022/10/30 01:37:56;;;;;;;18.23;8.55;;;;;;;18.16;56.58;101615.97;4962670;28;112423;-68
2022/10/30 01:40:23;;;;;;;15.75;8.63;;;;;;;18.14;56.61;101617.00;4982342;28;113452;-69
2022/10/30 01:42:57;;;;;;;17.35;8.80;;;;;;;18.09;56.58;101626.22;4960118;28;98667;-68
2022/10/30 01:45:44;;;;;;;17.95;8.57;;;;;;;18.05;56.49;101640.78;4960169;28;123685;-69
2022/10/30 01:48:40;;;;;;;16.48;8.88;;;;;;;17.98;56.37;101628.72;4957728;28;114826;-69
2022/10/30 01:51:22;;;;;;;13.13;9.30;;;;;;;17.92;56.62;101623.75;4946057;28;114581;-69
2022/10/30 01:54:01;;;;;;;17.35;9.38;;;;;;;17.88;56.82;101622.25;4956565;28;123104;-68
2022/10/30 01:56:42;;;;;;;17.70;8.07;;;;;;;17.85;57.08;101617.06;4953202;28;123870;-68
2022/10/30 01:59:17;;;;;;;15.55;8.90;;;;;;;17.82;57.19;101622.56;4971272;28;113743;-68
2022/10/30 02:01:45;;;;;;;18.02;8.77;;;;;;;17.80;57.12;101619.13;4957808;28;113576;-68
2022/10/30 02:04:13;;;;;;;19.63;9.32;;;;;;;17.77;57.22;101619.34;4959454;28;123923;-69
2022/10/30 02:06:40;;;;;;;19.77;9.07;;;;;;;17.75;57.06;101621.28;4962649;28;123868;-68
2022/10/30 02:09:08;;;;;;;19.92;9.68;;;;;;;17.73;57.28;101623.19;4976467;28;113735;-69
2022/10/30 02:11:41;;;;;;;20.75;9.25;;;;;;;17.70;57.43;101619.72;4964029;28;113134;-68
2022/10/30 02:14:09;;;;;;;15.60;9.85;;;;;;;17.67;57.35;101619.91;4966294;28;123956;-68
2022/10/30 02:16:43;;;;;;;13.70;8.80;;;;;;;17.64;57.50;101625.47;4962754;28;124198;-68
2022/10/30 02:19:10;;;;;;;18.42;8.88;;;;;;;17.64;57.29;101630.81;4958202;28;114736;-68
2022/10/30 02:21:37;;;;;;;16.55;9.27;;;;;;;17.62;57.59;101638.09;4966546;28;114078;-68
2022/10/30 02:24:05;;;;;;;17.85;9.63;;;;;;;17.59;57.54;101630.22;4952896;28;123918;-68
2022/10/30 02:26:32;;;;;;;19.08;8.93;;;;;;;17.57;57.48;101634.84;4976005;28;123041;-68
2022/10/30 02:29:01;;;;;;;17.75;9.10;;;;;;;17.55;57.48;101635.88;4970210;28;113421;-68
2022/10/30 02:31:28;;;;;;;14.18;8.32;;;;;;;17.52;57.63;101636.97;4971678;28;113817;-69
2022/10/30 02:33:55;;;;;;;16.63;8.88;;;;;;;17.50;57.50;101633.50;4966854;28;124097;-68
2022/10/30 02:36:22;;;;;;;15.35;8.48;;;;;;;17.49;57.84;101637.13;4966387;28;123116;-68
2022/10/30 02:38:49;;;;;;;16.98;8.88;;;;;;;17.47;58.02;101629.19;4961059;28;114405;-68
2022/10/30 02:41:16;;;;;;;18.48;8.68;;;;;;;17.49;58.06;101637.13;4974591;28;112976;-68
2022/10/30 02:43:43;;;;;;;22.00;8.90;;;;;;;17.50;58.12;101638.88;4964881;28;123952;-68
2022/10/30 02:46:10;;;;;;;15.65;8.27;;;;;;;17.50;58.27;101636.19;4968546;28;123822;-68
2022/10/30 02:48:37;;;;;;;14.00;8.45;;;;;;;17.51;58.10;101640.56;4960384;28;112580;-68
2022/10/30 02:51:04;;;;;;;17.60;8.73;;;;;;;17.52;58.33;101636.97;4966853;28;112555;-68
2022/10/30 02:53:32;;;;;;;17.70;8.40;;;;;;;17.53;58.31;101638.66;4964660;28;124053;-68
2022/10/30 02:56:04;;;;;;;18.92;8.85;;;;;;;17.56;58.47;101633.13;4959906;28;123121;-68
2022/10/30 02:58:31;;;;;;;20.58;8.70;;;;;;;17.57;58.18;101637.50;4941528;28;113595;-69
2022/10/30 03:01:10;;;;;;;17.58;9.32;;;;;;;17.59;58.70;101638.28;4959698;28;113931;-69
2022/10/30 03:03:38;;;;;;;13.85;8.38;;;;;;;17.63;58.68;101634.47;4958855;28;123621;-68
2022/10/30 03:06:07;;;;;;;18.40;8.63;;;;;;;17.66;58.69;101634.25;4964709;28;124180;-68
2022/10/30 03:08:35;;;;;;;15.38;9.07;;;;;;;17.70;58.36;101635.78;4958571;28;114364;-68
2022/10/30 03:11:08;;;;;;;17.98;9.45;;;;;;;17.73;58.68;101639.25;4960543;28;116339;-68
2022/10/30 03:13:36;;;;;;;16.48;8.80;;;;;;;17.74;58.59;101630.25;4957547;28;124679;-69
2022/10/30 03:16:12;;;;;;;18.02;8.88;;;;;;;17.76;58.64;101636.38;4970362;28;123621;-68
2022/10/30 03:18:39;;;;;;;17.50;8.55;;;;;;;17.77;58.48;101640.78;4957846;28;113266;-69
2022/10/30 03:21:12;;;;;;;18.17;8.40;;;;;;;17.79;58.43;101644.22;4949448;28;114745;-68
2022/10/30 03:23:39;;;;;;;19.05;9.07;;;;;;;17.81;58.57;101631.59;4959807;28;124243;-68
2022/10/30 03:26:07;;;;;;;18.77;8.57;;;;;;;17.83;58.52;101640.38;4960550;28;125243;-68
2022/10/30 03:28:46;;;;;;;18.08;8.45;;;;;;;17.85;58.50;101633.16;4958735;28;113504;-69
2022/10/30 03:31:15;;;;;;;18.98;8.82;;;;;;;17.88;58.38;101635.66;4961920;28;114755;-68
2022/10/30 03:33:44;;;;;;;18.08;8.13;;;;;;;17.90;58.50;101634.56;4960500;28;123099;-68
2022/10/30 03:36:13;;;;;;;16.25;8.02;;;;;;;17.92;58.33;101633.63;4944608;28;123309;-68
2022/10/30 03:38:40;;;;;;;17.13;8.05;;;;;;;17.92;58.39;101639.84;4960872;28;114392;-69
2022/10/30 03:41:09;;;;;;;16.33;8.50;;;;;;;17.92;58.28;101634.50;4955852;28;112746;-68
2022/10/30 03:43:36;;;;;;;16.45;8.70;;;;;;;17.92;58.40;101639.84;4955225;28;123223;-68
2022/10/30 03:46:04;;;;;;;14.57;8.45;;;;;;;17.92;58.07;101639.84;4956184;28;122492;-68
2022/10/30 03:48:32;;;;;;;18.13;9.25;;;;;;;17.92;58.07;101637.16;4966657;28;113717;-68
2022/10/30 03:51:00;;;;;;;19.30;8.95;;;;;;;17.91;58.27;101635.44;4966080;28;113062;-68
2022/10/30 03:53:28;;;;;;;15.70;8.60;;;;;;;17.92;58.19;101637.16;4950878;28;123195;-68
2022/10/30 03:56:00;;;;;;;15.38;8.55;;;;;;;17.91;58.07;101638.09;4955373;28;123075;-68
2022/10/30 03:58:36;;;;;;;17.45;8.38;;;;;;;17.92;57.96;101633.63;4963545;28;114840;-68
2022/10/30 04:01:09;;;;;;;14.93;8.63;;;;;;;17.91;58.10;101632.75;4961379;28;114232;-69
2022/10/30 04:03:38;;;;;;;13.90;8.43;;;;;;;17.88;58.27;101622.25;4957234;28;123298;-68
2022/10/30 04:06:08;;;;;;;15.65;8.27;;;;;;;17.89;58.20;101626.63;4941914;28;122955;-68
2022/10/30 04:08:35;;;;;;;14.75;8.18;;;;;;;17.88;58.16;101638.31;4955482;28;114393;-68
2022/10/30 04:11:03;;;;;;;16.60;8.57;;;;;;;17.87;58.29;101636.59;4962362;28;113422;-68
2022/10/30 04:13:31;;;;;;;15.88;8.10;;;;;;;17.87;58.35;101641.94;4979914;28;123263;-68
2022/10/30 04:15:58;;;;;;;13.90;8.15;;;;;;;17.86;58.24;101642.91;4965677;28;123896;-68
2022/10/30 04:18:25;;;;;;;17.38;8.43;;;;;;;17.86;58.18;101634.88;4980908;28;113359;-68
2022/10/30 04:20:54;;;;;;;18.48;8.27;;;;;;;17.86;58.40;101645.59;4980570;28;113501;-69
2022/10/30 04:23:21;;;;;;;14.52;7.93;;;;;;;17.86;58.33;101645.59;4968779;28;125040;-68
2022/10/30 04:25:48;;;;;;;15.43;8.38;;;;;;;17.85;58.46;101638.50;4962388;28;123043;-68
2022/10/30 04:28:17;;;;;;;14.32;8.05;;;;;;;17.84;58.39;101647.50;4962521;28;114689;-69
2022/10/30 04:30:45;;;;;;;15.30;8.52;;;;;;;17.82;58.49;101644.00;4964044;28;113568;-68
2022/10/30 04:33:14;;;;;;;18.05;8.68;;;;;;;17.81;58.43;101647.66;4964342;28;123730;-69
2022/10/30 04:35:41;;;;;;;19.27;9.00;;;;;;;17.81;58.63;101653.03;4965486;28;124591;-69
2022/10/30 04:38:17;;;;;;;16.02;8.60;;;;;;;17.80;58.58;101653.97;4962422;28;114468;-68
2022/10/30 04:40:45;;;;;;;18.48;8.90;;;;;;;17.80;58.61;101645.94;4966388;28;113299;-68
2022/10/30 04:43:13;;;;;;;14.85;8.57;;;;;;;17.79;58.62;101649.59;4960478;28;122549;-68
2022/10/30 04:45:42;;;;;;;15.82;8.60;;;;;;;17.79;58.49;101645.09;4962215;28;123161;-69
2022/10/30 04:48:14;;;;;;;16.00;8.75;;;;;;;17.79;58.72;101646.91;4962722;28;114467;-68
2022/10/30 04:50:43;;;;;;;15.52;9.02;;;;;;;17.79;58.63;101646.91;4962948;28;115005;-68
2022/10/30 04:53:17;;;;;;;17.80;9.00;;;;;;;17.78;58.74;101634.44;4950212;28;123795;-69
2022/10/30 04:55:52;;;;;;;20.77;8.77;;;;;;;17.76;58.58;101642.59;4965700;28;121807;-69
2022/10/30 04:58:20;;;;;;;18.17;8.27;;;;;;;17.73;58.38;101639.25;4979288;28;113921;-68
2022/10/30 05:00:52;;;;;;;12.55;7.82;;;;;;;17.69;58.45;101643.94;4967485;28;113253;-68
2022/10/30 05:03:26;;;;;;;15.02;7.82;;;;;;;17.66;58.15;101642.28;4964767;28;124161;-68
2022/10/30 05:06:02;;;;;;;11.93;7.90;;;;;;;17.65;58.20;101643.28;4964553;28;123981;-69
2022/10/30 05:08:29;;;;;;;15.65;7.85;;;;;;;17.62;58.28;101632.72;4968977;28;112295;-69
2022/10/30 05:11:02;;;;;;;13.93;8.07;;;;;;;17.59;57.99;101642.78;4962990;28;113255;-68
2022/10/30 05:13:29;;;;;;;16.60;8.27;;;;;;;17.53;58.21;101641.34;4978640;28;122531;-68
2022/10/30 05:15:56;;;;;;;17.40;9.20;;;;;;;17.47;58.01;101639.03;4960195;28;122846;-68
2022/10/30 05:18:23;;;;;;;22.15;9.88;;;;;;;17.43;58.12;101640.19;4963384;28;112513;-68
2022/10/30 05:20:51;;;;;;;16.70;8.63;;;;;;;17.34;58.16;101638.94;4961396;28;113115;-68
2022/10/30 05:23:18;;;;;;;15.77;8.43;;;;;;;17.27;58.27;101622.41;4960100;28;124225;-68
2022/10/30 05:25:46;;;;;;;18.13;8.60;;;;;;;17.22;58.30;101613.78;4966995;28;122934;-68
2022/10/30 05:28:15;;;;;;;16.80;8.55;;;;;;;17.17;58.48;101610.50;4963170;28;113805;-69
2022/10/30 05:30:51;;;;;;;17.27;8.75;;;;;;;17.12;58.75;101612.59;4965438;28;113649;-68
2022/10/30 05:33:37;;;;;;;17.73;8.80;;;;;;;17.08;58.55;101611.94;4958241;28;124031;-68
2022/10/30 05:36:04;;;;;;;18.88;8.85;;;;;;;17.08;59.05;101611.06;4962514;28;123647;-68
2022/10/30 05:38:31;;;;;;;19.65;8.75;;;;;;;17.05;58.89;101616.63;4973271;28;115275;-68
2022/10/30 05:40:59;;;;;;;15.82;9.10;;;;;;;17.04;58.94;101625.56;4962957;28;114120;-68
2022/10/30 05:43:26;;;;;;;13.98;7.57;;;;;;;17.04;59.07;101625.56;4978959;28;123623;-68
2022/10/30 05:45:53;;;;;;;14.43;8.65;;;;;;;17.03;58.97;101630.06;4958013;28;122318;-68
2022/10/30 05:48:20;;;;;;;15.35;8.52;;;;;;;17.02;58.92;101632.84;4957750;28;113497;-69
2022/10/30 05:50:48;;;;;;;17.38;8.20;;;;;;;16.99;58.84;101627.66;4965184;28;113210;-68
2022/10/30 05:53:26;;;;;;;14.65;8.55;;;;;;;16.96;58.66;101633.22;4961395;28;124095;-69
2022/10/30 05:55:56;;;;;;;15.13;8.18;;;;;;;16.91;58.76;101631.69;4976737;28;123371;-68
2022/10/30 05:58:25;;;;;;;14.80;7.95;;;;;;;16.89;58.74;101638.06;4960623;28;113999;-69
2022/10/30 06:00:54;;;;;;;13.52;7.88;;;;;;;16.84;58.68;101630.31;4975048;28;113259;-68
2022/10/30 06:03:35;;;;;;;16.58;8.65;;;;;;;16.81;58.63;101635.81;4952891;28;122923;-68
2022/10/30 06:06:03;;;;;;;18.75;8.75;;;;;;;16.78;58.83;101624.41;4965105;28;123364;-68
2022/10/30 06:08:30;;;;;;;17.48;8.10;;;;;;;16.74;58.81;101624.63;4964382;28;113538;-68
2022/10/30 06:11:00;;;;;;;17.27;8.45;;;;;;;16.69;58.73;101631.19;4977439;28;113386;-68
2022/10/30 06:13:36;;;;;;;16.27;8.32;;;;;;;16.64;58.84;101638.59;4973450;28;123660;-68
2022/10/30 06:16:09;;;;;;;19.13;8.43;;;;;;;16.60;58.70;101647.75;4942321;28;123547;-69
2022/10/30 06:18:55;;;;;;;13.70;8.25;;;;;;;16.54;58.53;101648.97;4955912;28;113821;-68
2022/10/30 06:21:23;;;;;;;13.85;8.15;;;;;;;16.49;58.74;101646.53;4974819;28;114141;-68
2022/10/30 06:24:11;;;;;;;20.80;7.88;;;;;;;16.45;59.02;101650.34;4953662;28;124585;-68
2022/10/30 06:26:48;;;;;;;15.23;8.27;;;;;;;16.40;58.65;101643.53;4961393;28;123659;-69
2022/10/30 06:29:15;;;;;;;18.58;9.00;;;;;;;16.34;59.04;101642.06;4968687;28;114350;-69
2022/10/30 06:31:42;;;;;;;17.85;8.43;;;;;;;16.30;59.15;101645.88;4969723;28;112943;-68
2022/10/30 06:34:11;;;;;;;14.40;7.95;;;;;;;16.27;59.31;101646.03;4953408;28;123171;-69
2022/10/30 06:36:40;;;;;;;15.90;9.25;;;;;;;16.24;59.43;101646.22;4957172;28;123691;-69
2022/10/30 06:39:07;;;;;;;13.52;8.50;;;;;;;16.22;59.54;101659.69;4957291;28;113455;-69
2022/10/30 06:41:42;;;;;;;19.98;9.32;;;;;;;16.19;59.31;101653.63;4970838;28;112390;-69
2022/10/30 06:44:41;;;;;;;16.30;9.73;;;;;;;16.15;59.39;101648.44;4962083;28;123985;-69
2022/10/30 06:47:08;;;;;;;18.00;8.93;;;;;;;16.12;59.77;101643.28;4958904;28;123933;-69
2022/10/30 06:49:35;;;;;;;18.63;9.00;;;;;;;16.10;59.58;101645.16;4953004;28;113726;-68
2022/10/30 06:52:02;;;;;;;15.95;8.70;;;;;;;16.09;59.83;101648.78;4959580;28;113867;-69
2022/10/30 06:54:29;;;;;;;14.88;7.80;;;;;;;16.07;60.01;101640.00;4953887;28;123999;-68
2022/10/30 06:57:19;;;;;;;16.25;8.70;;;;;;;16.04;59.79;101640.16;4964163;28;124031;-69
2022/10/30 07:00:03;;;;;;;16.73;8.82;;;;;;;16.00;59.72;101635.94;4990741;28;114437;-68
2022/10/30 07:02:58;;;;;;;14.45;9.02;;;;;;;15.97;59.96;101638.78;4972743;28;114155;-69
2022/10/30 07:05:27;;;;;;;14.25;8.18;;;;;;;15.95;59.83;101633.53;4965299;28;124757;-68
2022/10/30 07:07:56;;;;;;;22.10;11.05;;;;;;;15.94;59.98;101633.63;4966057;28;122710;-68
2022/10/30 07:10:23;;;;;;;20.58;11.18;;;;;;;15.93;60.11;101631.88;4969120;28;113894;-69
2022/10/30 07:13:15;;;;;;;20.10;10.57;;;;;;;15.92;60.05;101635.50;4978502;28;113242;-69
2022/10/30 07:15:47;;;;;;;21.83;11.45;;;;;;;15.92;60.28;101635.50;4974102;28;123661;-69
2022/10/30 07:18:25;;;;;;;20.25;10.93;;;;;;;15.92;60.26;101630.16;4966819;28;123174;-69
2022/10/30 07:20:56;;;;;;;19.23;12.40;;;;;;;15.92;60.22;101631.03;4968573;28;114367;-68
2022/10/30 07:23:24;;;;;;;21.50;11.77;;;;;;;15.94;60.21;101633.63;4969706;28;114783;-69
2022/10/30 07:25:55;;;;;;;24.60;11.95;;;;;;;15.94;60.32;101633.63;4963739;28;122292;-69
2022/10/30 07:28:34;;;;;;;18.40;11.95;;;;;;;15.96;60.35;101637.91;4970880;28;123988;-69
2022/10/30 07:31:22;;;;;;;23.00;13.13;;;;;;;15.98;60.49;101640.50;4977450;28;113780;-68
2022/10/30 07:34:28;;;;;;;22.42;13.20;;;;;;;16.01;60.48;101639.47;4965305;28;113277;-68
2022/10/30 07:37:14;;;;;;;21.48;12.93;;;;;;;16.02;60.49;101635.84;4963846;28;124475;-69
2022/10/30 07:39:51;;;;;;;23.98;13.43;;;;;;;16.04;60.71;101634.81;4984902;28;123687;-69
2022/10/30 07:42:25;;;;;;;21.05;12.85;;;;;;;16.06;60.62;101632.91;4964379;28;114015;-68
2022/10/30 07:45:21;;;;;;;23.33;12.82;;;;;;;16.09;60.70;101627.41;4928412;28;114777;-69
2022/10/30 07:48:17;;;;;;;;;;;;;;;16.08;60.44;101625.69;4964736;28;124897;-69
2022/10/30 07:50:52;;;;;;;27.40;12.57;;;;;;;16.12;60.59;101624.59;4976718;28;122979;-69
2022/10/30 07:53:19;;;;;;;20.67;12.52;;;;;;;16.15;60.82;101629.75;4970428;28;113898;-68
2022/10/30 07:55:47;;;;;;;22.35;13.02;;;;;;;16.19;60.76;101632.25;4970804;28;112617;-68
2022/10/30 07:58:33;;;;;;;22.13;13.75;;;;;;;16.22;60.84;101632.94;4972751;28;125761;-68
2022/10/30 08:01:18;;;;;;;24.23;13.18;;;;;;;16.27;61.04;101635.34;4970893;28;122239;-69
2022/10/30 08:03:45;;;;;;;26.63;12.18;;;;;;;16.30;61.02;101629.84;4957060;28;113463;-69
2022/10/30 08:06:22;;;;;;;21.63;12.70;;;;;;;16.36;61.16;101629.47;4971761;28;113293;-68
2022/10/30 08:08:53;;;;;;;22.20;14.50;;;;;;;16.40;61.18;101620.34;4972525;28;124039;-69
2022/10/30 08:11:29;;;;;;;25.05;14.43;;;;;;;16.45;61.26;101623.59;4982845;28;122385;-69
2022/10/30 08:13:58;;;;;;;23.38;14.23;;;;;;;16.48;61.23;101623.44;4987673;28;113686;-68
2022/10/30 08:16:25;;;;;;;22.17;14.85;;;;;;;16.54;61.45;101628.44;4968773;28;114888;-68
2022/10/30 08:18:53;;;;;;;24.38;14.43;;;;;;;16.59;61.34;101632.66;4977683;28;123416;-68
2022/10/30 08:21:23;;;;;;;23.50;14.57;;;;;;;16.63;61.44;101620.81;4972204;28;123924;-68
2022/10/30 08:24:16;;;;;;;27.08;15.85;;;;;;;16.68;61.30;101630.28;4971975;28;114682;-69
2022/10/30 08:26:46;;;;;;;26.52;14.82;;;;;;;16.73;61.54;101638.06;4970445;28;112993;-69
2022/10/30 08:29:13;;;;;;;24.98;15.68;;;;;;;16.77;61.53;101634.25;4970149;28;122447;-68
2022/10/30 08:31:42;;;;;;;25.85;16.73;;;;;;;16.81;61.68;101641.16;4956864;28;122989;-68
2022/10/30 08:34:31;;;;;;;28.65;17.73;;;;;;;16.85;61.87;101632.03;4968755;28;114393;-69
2022/10/30 08:37:02;;;;;;;28.60;16.65;;;;;;;16.89;61.91;101638.91;4970023;28;113170;-69
2022/10/30 08:39:29;;;;;;;34.17;17.95;;;;;;;16.95;61.95;101637.69;4969123;28;123713;-69
2022/10/30 08:42:12;;;;;;;29.42;16.60;;;;;;;17.01;62.17;101631.09;4969054;28;125107;-69
2022/10/30 08:44:43;;;;;;;26.45;17.15;;;;;;;17.08;62.11;101619.09;4969252;28;114565;-68
2022/10/30 08:47:16;;;;;;;28.25;17.48;;;;;;;17.13;62.28;101611.66;4958737;28;114836;-69
2022/10/30 08:49:44;;;;;;;28.60;17.33;;;;;;;17.18;62.29;101604.22;4968993;28;123531;-69
2022/10/30 08:52:13;;;;;;;24.67;17.50;;;;;;;17.26;62.30;101604.59;4969161;28;122639;-68
2022/10/30 08:54:43;;;;;;;22.55;17.08;;;;;;;17.33;62.63;101610.44;4969329;28;113464;-68
2022/10/30 08:57:11;;;;;;;27.02;17.98;;;;;;;17.41;62.53;101618.00;4969785;28;113215;-68
2022/10/30 08:59:38;;;;;;;28.58;16.00;;;;;;;17.47;62.62;101625.66;4969462;28;123188;-69
2022/10/30 09:02:12;;;;;;;29.70;17.25;;;;;;;17.55;62.43;101615.31;4968504;28;122944;-69
2022/10/30 09:04:59;;;;;;;25.00;15.57;;;;;;;17.65;62.29;101616.47;4948543;28;116735;-69
2022/10/30 09:07:59;;;;;;;30.48;14.60;;;;;;;17.75;62.18;101610.56;4918325;28;115563;-69
2022/10/30 09:10:46;;;;;;;22.20;15.00;;;;;;;17.85;62.24;101606.34;4950756;28;124819;-69
2022/10/30 09:13:13;;;;;;;23.70;15.32;;;;;;;17.94;62.02;101611.13;4961969;28;123982;-69
2022/10/30 09:15:42;;;;;;;26.08;14.45;;;;;;;18.05;61.92;101619.34;4979654;28;112834;-69
2022/10/30 09:18:09;;;;;;;22.60;14.80;;;;;;;18.15;61.93;101626.78;4962420;28;113130;-69
2022/10/30 09:20:37;;;;;;;25.92;14.27;;;;;;;18.24;61.72;101628.88;4969381;28;123911;-69
2022/10/30 09:23:04;;;;;;;25.70;15.20;;;;;;;18.34;61.57;101624.63;4957425;28;124547;-69
2022/10/30 09:25:31;;;;;;;23.73;15.10;;;;;;;18.44;61.55;101619.50;4985632;28;112611;-69
2022/10/30 09:28:08;;;;;;;23.92;14.55;;;;;;;18.55;61.32;101608.09;4973358;28;113117;-68
2022/10/30 09:30:55;;;;;;;24.08;14.40;;;;;;;18.65;61.44;101606.53;4956690;28;123729;-69
2022/10/30 09:33:24;;;;;;;24.23;15.25;;;;;;;18.74;61.28;101611.28;4969319;28;121939;-69
2022/10/30 09:36:14;;;;;;;20.77;14.20;;;;;;;18.84;60.92;101601.66;4969406;28;114230;-69
2022/10/30 09:38:47;;;;;;;21.38;14.80;;;;;;;18.96;60.98;101599.09;4953926;28;113608;-69
2022/10/30 09:41:36;;;;;;;21.42;13.40;;;;;;;19.07;61.03;101604.59;4951694;28;123241;-69
2022/10/30 09:44:25;;;;;;;20.58;13.00;;;;;;;19.20;60.82;101602.78;4967782;28;123054;-69
2022/10/30 09:47:03;;;;;;;21.92;13.05;;;;;;;19.34;60.46;101609.00;4966075;28;113070;-68
2022/10/30 09:49:53;;;;;;;24.17;12.23;;;;;;;19.45;60.24;101607.28;4978994;28;113899;-68
2022/10/30 09:52:28;;;;;;;19.20;12.27;;;;;;;19.57;59.96;101604.69;4984955;28;122892;-69
2022/10/30 09:55:15;;;;;;;19.33;13.02;;;;;;;19.71;60.02;101601.03;4967796;28;123421;-69
2022/10/30 09:58:16;;;;;;;18.40;11.77;;;;;;;19.85;59.82;101598.25;4968038;28;115063;-69
2022/10/30 10:00:55;;;;;;;21.05;11.80;;;;;;;19.99;59.64;101608.88;4956343;28;114575;-68
2022/10/30 10:03:47;;;;;;;21.10;12.77;;;;;;;20.12;59.55;101607.97;4960830;28;123340;-69
2022/10/30 10:06:41;;;;;;;20.63;11.18;;;;;;;20.29;59.45;101607.59;4959926;28;124359;-69
2022/10/30 10:09:21;;;;;;;20.15;10.77;;;;;;;20.45;59.06;101611.81;4968254;28;113932;-69
2022/10/30 10:12:08;;;;;;;19.25;11.10;;;;;;;20.59;58.64;101608.97;4970409;28;114973;-68
2022/10/30 10:14:42;;;;;;;17.85;10.85;;;;;;;20.72;58.40;101623.25;4964679;28;123410;-69
2022/10/30 10:17:14;;;;;;;19.85;10.48;;;;;;;20.86;57.96;101621.34;4961728;28;125127;-69
2022/10/30 10:19:49;;;;;;;14.43;10.20;;;;;;;20.99;57.81;101635.59;4961506;28;113307;-68
2022/10/30 10:22:25;;;;;;;20.15;10.55;;;;;;;21.10;57.74;101635.63;4961812;28;113907;-69
2022/10/30 10:24:53;;;;;;;21.98;10.80;;;;;;;21.24;57.40;101628.31;4947009;28;124143;-69
2022/10/30 10:27:23;;;;;;;23.58;10.30;;;;;;;21.34;56.91;101624.78;4962501;28;123837;-69
2022/10/30 10:30:02;;;;;;;16.08;10.75;;;;;;;21.42;56.75;101623.28;4963510;28;115065;-69
2022/10/30 10:32:38;;;;;;;21.42;10.60;;;;;;;21.49;56.90;101622.75;4961232;28;113156;-69
2022/10/30 10:35:19;;;;;;;19.42;10.80;;;;;;;21.60;56.53;101615.63;4953714;28;123901;-69
2022/10/30 10:38:00;;;;;;;18.90;10.45;;;;;;;21.68;56.59;101618.56;4966149;28;124521;-69
2022/10/30 10:40:49;;;;;;;17.48;10.43;;;;;;;21.77;56.28;101612.44;4968679;28;113429;-69
2022/10/30 10:43:34;;;;;;;15.38;9.77;;;;;;;21.88;56.15;101615.13;4970998;28;113906;-69
2022/10/30 10:46:23;;;;;;;17.63;9.50;;;;;;;21.99;55.86;101616.13;4968333;28;123090;-69
2022/10/30 10:48:59;;;;;;;17.77;10.05;;;;;;;22.07;55.36;101609.09;4968582;28;122869;-69
2022/10/30 10:51:39;;;;;;;17.35;9.77;;;;;;;22.14;55.13;101614.88;4966728;28;115671;-69
2022/10/30 10:54:22;;;;;;;20.13;9.75;;;;;;;22.19;54.77;101604.56;4968775;28;114409;-69
2022/10/30 10:56:50;;;;;;;17.02;8.85;;;;;;;22.27;54.70;101609.34;4967439;28;124474;-69
2022/10/30 10:59:31;;;;;;;16.00;9.13;;;;;;;22.34;54.58;101606.03;4980078;28;124029;-69
2022/10/30 11:02:04;;;;;;;16.60;9.73;;;;;;;22.44;54.68;101613.34;4967612;28;115037;-69
2022/10/30 11:04:38;;;;;;;17.50;8.98;;;;;;;22.51;54.16;101601.06;4970063;28;113953;-69
2022/10/30 11:07:21;;;;;;;20.05;9.57;;;;;;;22.60;54.47;101597.56;4968134;28;125365;-69
2022/10/30 11:09:55;;;;;;;18.02;8.88;;;;;;;22.69;54.25;101599.50;4961474;28;124597;-69
2022/10/30 11:12:36;;;;;;;14.80;8.88;;;;;;;22.78;54.01;101597.00;4963372;28;114661;-69
2022/10/30 11:15:25;;;;;;;20.25;9.25;;;;;;;22.83;53.73;101590.22;4965984;28;113805;-69
2022/10/30 11:17:59;;;;;;;16.52;8.95;;;;;;;22.90;53.56;101595.94;4965285;28;124056;-69
2022/10/30 11:20:34;;;;;;;18.97;9.67;;;;;;;22.93;53.13;101585.75;4966396;28;124065;-69
2022/10/30 11:23:02;;;;;;;18.92;8.98;;;;;;;22.96;52.99;101584.63;4963412;28;115123;-69
2022/10/30 11:25:35;;;;;;;15.13;8.95;;;;;;;22.99;53.00;101583.50;4964437;28;113651;-69
2022/10/30 11:28:04;;;;;;;18.50;10.13;;;;;;;23.03;52.87;101591.25;4964215;28;124211;-69
2022/10/30 11:30:31;;;;;;;18.15;9.48;;;;;;;23.08;52.94;101583.59;4964755;28;123737;-69
2022/10/30 11:33:21;;;;;;;16.85;8.63;;;;;;;23.11;52.71;101577.94;4962888;28;113034;-69
2022/10/30 11:35:48;;;;;;;14.80;8.88;;;;;;;23.16;52.56;101573.97;4953104;28;114333;-69